ADDS METAR Data INFO
IDs: Format: Raw Decoded Include TAF

Data at: 1858 UTC 19 Sep 2017

METAR for:KHSE (Hatteras/Mitchell Fl, NC, US)
Text:KHSE 191851Z AUTO 32014G24KT 10SM -RA FEW020 BKN036 OVC046 24/21 A2984 RMK AO2 PK WND 32026/1837 RAB40 SLP103 P0000 T02390211 TSNO
Temperature: 23.9°C ( 75°F)
Dewpoint: 21.1°C ( 70°F) [RH = 84%]
Pressure (altimeter):29.84 inches Hg (1010.6 mb) [Sea level pressure: 1010.3 mb]
Winds:from the NW (320 degrees) at 16 MPH (14 knots; 7.2 m/s) gusting to 28 MPH (24 knots; 12.3 m/s)
Visibility:10 or more sm (16+ km)
Ceiling:3600 feet AGL
Clouds: few clouds at 2000 feet AGL, broken clouds at 3600 feet AGL, overcast cloud deck at 4600 feet AGL
Weather:-RA (light rain)
QC Flag:automated observation with no human augmentation
Text:KHSE 191751Z AUTO 32011G21KT 10SM FEW016 BKN039 OVC050 24/21 A2983 RMK AO2 SLP101 60005 T02390206 10244 20217 58006 TSNO
Temperature: 23.9°C ( 75°F)
Dewpoint: 20.6°C ( 69°F) [RH = 82%]
Pressure (altimeter):29.83 inches Hg (1010.2 mb) [Sea level pressure: 1010.1 mb]
Winds:from the NW (320 degrees) at 13 MPH (11 knots; 5.7 m/s) gusting to 24 MPH (21 knots; 10.8 m/s)
Visibility:10 or more sm (16+ km)
Ceiling:3900 feet AGL
Clouds: few clouds at 1600 feet AGL, broken clouds at 3900 feet AGL, overcast cloud deck at 5000 feet AGL
QC Flag:automated observation with no human augmentation
Text:KHSE 191709Z AUTO 32012G22KT 10SM FEW013 FEW022 OVC047 23/21 A2984 RMK AO2 T02330206 TSNO
Temperature: 23.3°C ( 74°F)
Dewpoint: 20.6°C ( 69°F) [RH = 85%]
Pressure (altimeter):29.84 inches Hg (1010.6 mb)
Winds:from the NW (320 degrees) at 14 MPH (12 knots; 6.2 m/s) gusting to 25 MPH (22 knots; 11.3 m/s)
Visibility:10 or more sm (16+ km)
Ceiling:4700 feet AGL
Clouds: few clouds at 1300 feet AGL, few clouds at 2200 feet AGL, overcast cloud deck at 4700 feet AGL
QC Flag:automated observation with no human augmentation
Text:KHSE 191651Z AUTO 34011G23KT 10SM FEW010 BKN017 OVC050 23/21 A2984 RMK AO2 RAE1559B24E48 SLP106 P0000 T02330211 TSNO
Temperature: 23.3°C ( 74°F)
Dewpoint: 21.1°C ( 70°F) [RH = 87%]
Pressure (altimeter):29.84 inches Hg (1010.6 mb) [Sea level pressure: 1010.6 mb]
Winds:from the NNW (340 degrees) at 13 MPH (11 knots; 5.7 m/s) gusting to 26 MPH (23 knots; 11.8 m/s)
Visibility:10 or more sm (16+ km)
Ceiling:1700 feet AGL
Clouds: few clouds at 1000 feet AGL, broken clouds at 1700 feet AGL, overcast cloud deck at 5000 feet AGL
QC Flag:automated observation with no human augmentation
Text:KHSE 191637Z AUTO 33010G22KT 5SM -RA BR BKN012 OVC019 23/22 A2984 RMK AO2 RAE1559B24 P0000 T02280217 TSNO
Temperature: 22.8°C ( 73°F)
Dewpoint: 21.7°C ( 71°F) [RH = 94%]
Pressure (altimeter):29.84 inches Hg (1010.6 mb)
Winds:from the NNW (330 degrees) at 12 MPH (10 knots; 5.1 m/s) gusting to 25 MPH (22 knots; 11.3 m/s)
Visibility: 5 sm ( 8 km)
Ceiling:1200 feet AGL
Clouds: broken clouds at 1200 feet AGL, overcast cloud deck at 1900 feet AGL
Weather:-RA BR (light rain, mist)
QC Flag:automated observation with no human augmentation
Text:KHSE 191618Z AUTO 33013G23KT 10SM SCT014 BKN027 OVC049 23/21 A2984 RMK AO2 RAE1559 P0000 T02280211 TSNO
Temperature: 22.8°C ( 73°F)
Dewpoint: 21.1°C ( 70°F) [RH = 90%]
Pressure (altimeter):29.84 inches Hg (1010.6 mb)
Winds:from the NNW (330 degrees) at 15 MPH (13 knots; 6.7 m/s) gusting to 26 MPH (23 knots; 11.8 m/s)
Visibility:10 or more sm (16+ km)
Ceiling:2700 feet AGL
Clouds: scattered clouds at 1400 feet AGL, broken clouds at 2700 feet AGL, overcast cloud deck at 4900 feet AGL
QC Flag:automated observation with no human augmentation
Text:KHSE 191602Z AUTO 33013G21KT 10SM SCT008 BKN033 OVC045 23/21 A2984 RMK AO2 RAE1559 P0000 T02280211 TSNO
Temperature: 22.8°C ( 73°F)
Dewpoint: 21.1°C ( 70°F) [RH = 90%]
Pressure (altimeter):29.84 inches Hg (1010.6 mb)
Winds:from the NNW (330 degrees) at 15 MPH (13 knots; 6.7 m/s) gusting to 24 MPH (21 knots; 10.8 m/s)
Visibility:10 or more sm (16+ km)
Ceiling:3300 feet AGL
Clouds: scattered clouds at 800 feet AGL, broken clouds at 3300 feet AGL, overcast cloud deck at 4500 feet AGL
QC Flag:automated observation with no human augmentation
Text:KHSE 191551Z AUTO 33013G25KT 310V010 4SM -RA BR BKN008 BKN014 OVC027 22/22 A2985 RMK AO2 SLP108 P0002 T02220217 TSNO
Temperature: 22.2°C ( 72°F)
Dewpoint: 21.7°C ( 71°F) [RH = 97%]
Pressure (altimeter):29.85 inches Hg (1010.9 mb) [Sea level pressure: 1010.8 mb]
Winds:from the NNW (330 degrees) at 15 MPH (13 knots; 6.7 m/s) gusting to 29 MPH (25 knots; 12.9 m/s)
Visibility: 4 sm ( 6 km)
Ceiling:800 feet AGL
Clouds: broken clouds at 800 feet AGL, broken clouds at 1400 feet AGL, overcast cloud deck at 2700 feet AGL
Weather:-RA BR (light rain, mist)
QC Flag:automated observation with no human augmentation
Text:KHSE 191502Z AUTO 31012G20KT 4SM -RA BR BKN008 BKN012 OVC030 22/22 A2985 RMK AO2 P0000 T02220217 TSNO
Temperature: 22.2°C ( 72°F)
Dewpoint: 21.7°C ( 71°F) [RH = 97%]
Pressure (altimeter):29.85 inches Hg (1010.9 mb)
Winds:from the NW (310 degrees) at 14 MPH (12 knots; 6.2 m/s) gusting to 23 MPH (20 knots; 10.3 m/s)
Visibility: 4 sm ( 6 km)
Ceiling:800 feet AGL
Clouds: broken clouds at 800 feet AGL, broken clouds at 1200 feet AGL, overcast cloud deck at 3000 feet AGL
Weather:-RA BR (light rain, mist)
QC Flag:automated observation with no human augmentation
Text:KHSE 191451Z AUTO 32008G19KT 3SM -RA BR SCT008 BKN013 OVC043 22/21 A2985 RMK AO2 SLP107 P0003 60003 T02170211 51012 TSNO
Temperature: 21.7°C ( 71°F)
Dewpoint: 21.1°C ( 70°F) [RH = 96%]
Pressure (altimeter):29.85 inches Hg (1010.9 mb) [Sea level pressure: 1010.7 mb]
Winds:from the NW (320 degrees) at 9 MPH (8 knots; 4.1 m/s) gusting to 22 MPH (19 knots; 9.8 m/s)
Visibility: 3 sm ( 5 km)
Ceiling:1300 feet AGL
Clouds: scattered clouds at 800 feet AGL, broken clouds at 1300 feet AGL, overcast cloud deck at 4300 feet AGL
Weather:-RA BR (light rain, mist)
QC Flag:automated observation with no human augmentation
Text:KHSE 191431Z AUTO 34007G23KT 300V040 4SM -RA BR FEW009 BKN019 OVC024 22/21 A2985 RMK AO2 P0002 T02170211 TSNO
Temperature: 21.7°C ( 71°F)
Dewpoint: 21.1°C ( 70°F) [RH = 96%]
Pressure (altimeter):29.85 inches Hg (1010.9 mb)
Winds:from the NNW (340 degrees) at 8 MPH (7 knots; 3.6 m/s) gusting to 26 MPH (23 knots; 11.8 m/s)
Visibility: 4 sm ( 6 km)
Ceiling:1900 feet AGL
Clouds: few clouds at 900 feet AGL, broken clouds at 1900 feet AGL, overcast cloud deck at 2400 feet AGL
Weather:-RA BR (light rain, mist)
QC Flag:automated observation with no human augmentation
Text:KHSE 191417Z AUTO 33010G22KT 310V010 2 1/2SM RA BR FEW007 SCT012 OVC021 22/21 A2985 RMK AO2 VIS 1V5 P0001 T02170211 TSNO
Temperature: 21.7°C ( 71°F)
Dewpoint: 21.1°C ( 70°F) [RH = 96%]
Pressure (altimeter):29.85 inches Hg (1010.9 mb)
Winds:from the NNW (330 degrees) at 12 MPH (10 knots; 5.1 m/s) gusting to 25 MPH (22 knots; 11.3 m/s)
Visibility: 2.50 sm ( 4.02 km)
Ceiling:2100 feet AGL
Clouds: few clouds at 700 feet AGL, scattered clouds at 1200 feet AGL, overcast cloud deck at 2100 feet AGL
Weather:RA BR (moderate rain, mist)
QC Flag:automated observation with no human augmentation
Text:KHSE 191351Z AUTO VRB06G20KT 9SM -RA BKN019 OVC029 22/21 A2984 RMK AO2 RAE1258B31 SLP105 P0000 T02220211 TSNO
Temperature: 22.2°C ( 72°F)
Dewpoint: 21.1°C ( 70°F) [RH = 93%]
Pressure (altimeter):29.84 inches Hg (1010.6 mb) [Sea level pressure: 1010.5 mb]
Winds:variable direction winds at 7 MPH (6 knots; 3.1 m/s) gusting to 23 MPH (20 knots; 10.3 m/s)
Visibility: 9 sm ( 14 km)
Ceiling:1900 feet AGL
Clouds: broken clouds at 1900 feet AGL, overcast cloud deck at 2900 feet AGL
Weather:-RA (light rain)
QC Flag:automated observation with no human augmentation
Text:KHSE 191251Z AUTO 34009G20KT 300V070 6SM -RA BR OVC016 22/21 A2982 RMK AO2 RAB00E13B39 SLP098 P0000 T02220211 TSNO
Temperature: 22.2°C ( 72°F)
Dewpoint: 21.1°C ( 70°F) [RH = 93%]
Pressure (altimeter):29.82 inches Hg (1009.9 mb) [Sea level pressure: 1009.8 mb]
Winds:from the NNW (340 degrees) at 10 MPH (9 knots; 4.6 m/s) gusting to 23 MPH (20 knots; 10.3 m/s)
Visibility: 6 sm ( 10 km)
Ceiling:1600 feet AGL
Clouds: overcast cloud deck at 1600 feet AGL
Weather:-RA BR (light rain, mist)
QC Flag:automated observation with no human augmentation
Text:KHSE 191151Z AUTO 10SM SCT009 BKN016 OVC021 22/22 A2981 RMK AO2 RAE51 SLP095 P0004 60007 70007 T02220217 10239 20217 53017 TSNO
Temperature: 22.2°C ( 72°F)
Dewpoint: 21.7°C ( 71°F) [RH = 97%]
Pressure (altimeter):29.81 inches Hg (1009.6 mb) [Sea level pressure: 1009.5 mb]
Visibility:10 or more sm (16+ km)
Ceiling:1600 feet AGL
Clouds: scattered clouds at 900 feet AGL, broken clouds at 1600 feet AGL, overcast cloud deck at 2100 feet AGL
QC Flag:automated observation with no human augmentation
Text:KHSE 191137Z AUTO 01010G21KT 3SM -RA BR SCT008 OVC013 22/21 A2981 RMK AO2 P0003 T02170211 TSNO
Temperature: 21.7°C ( 71°F)
Dewpoint: 21.1°C ( 70°F) [RH = 96%]
Pressure (altimeter):29.81 inches Hg (1009.6 mb)
Winds:from the N (10 degrees) at 12 MPH (10 knots; 5.1 m/s) gusting to 24 MPH (21 knots; 10.8 m/s)
Visibility: 3 sm ( 5 km)
Ceiling:1300 feet AGL
Clouds: scattered clouds at 800 feet AGL, overcast cloud deck at 1300 feet AGL
Weather:-RA BR (light rain, mist)
QC Flag:automated observation with no human augmentation
Text:KHSE 191130Z AUTO 36011G19KT 330V030 2 1/2SM RA BR FEW008 BKN012 OVC019 22/22 A2981 RMK AO2 P0001 T02220217 TSNO
Temperature: 22.2°C ( 72°F)
Dewpoint: 21.7°C ( 71°F) [RH = 97%]
Pressure (altimeter):29.81 inches Hg (1009.6 mb)
Winds:from the N (360 degrees) at 13 MPH (11 knots; 5.7 m/s) gusting to 22 MPH (19 knots; 9.8 m/s)
Visibility: 2.50 sm ( 4.02 km)
Ceiling:1200 feet AGL
Clouds: few clouds at 800 feet AGL, broken clouds at 1200 feet AGL, overcast cloud deck at 1900 feet AGL
Weather:RA BR (moderate rain, mist)
QC Flag:automated observation with no human augmentation
Text:KHSE 191128Z AUTO 35007G19KT 300V020 3SM RA BR SCT008 OVC014 22/22 A2981 RMK AO2 P0001 T02220217 TSNO
Temperature: 22.2°C ( 72°F)
Dewpoint: 21.7°C ( 71°F) [RH = 97%]
Pressure (altimeter):29.81 inches Hg (1009.6 mb)
Winds:from the N (350 degrees) at 8 MPH (7 knots; 3.6 m/s) gusting to 22 MPH (19 knots; 9.8 m/s)
Visibility: 3 sm ( 5 km)
Ceiling:1400 feet AGL
Clouds: scattered clouds at 800 feet AGL, overcast cloud deck at 1400 feet AGL
Weather:RA BR (moderate rain, mist)
QC Flag:automated observation with no human augmentation
Text:KHSE 191103Z AUTO 34009G21KT 4SM -RA BR FEW009 OVC018 22/22 A2979 RMK AO2 P0001 T02220217 TSNO
Temperature: 22.2°C ( 72°F)
Dewpoint: 21.7°C ( 71°F) [RH = 97%]
Pressure (altimeter):29.79 inches Hg (1008.9 mb)
Winds:from the NNW (340 degrees) at 10 MPH (9 knots; 4.6 m/s) gusting to 24 MPH (21 knots; 10.8 m/s)
Visibility: 4 sm ( 6 km)
Ceiling:1800 feet AGL
Clouds: few clouds at 900 feet AGL, overcast cloud deck at 1800 feet AGL
Weather:-RA BR (light rain, mist)
QC Flag:automated observation with no human augmentation
Text:KHSE 191051Z AUTO 33009G17KT 300V010 5SM -RA BR FEW009 BKN014 OVC029 22/22 A2979 RMK AO2 RAB12 SLP088 P0003 T02220217 TSNO
Temperature: 22.2°C ( 72°F)
Dewpoint: 21.7°C ( 71°F) [RH = 97%]
Pressure (altimeter):29.79 inches Hg (1008.9 mb) [Sea level pressure: 1008.8 mb]
Winds:from the NNW (330 degrees) at 10 MPH (9 knots; 4.6 m/s) gusting to 20 MPH (17 knots; 8.7 m/s)
Visibility: 5 sm ( 8 km)
Ceiling:1400 feet AGL
Clouds: few clouds at 900 feet AGL, broken clouds at 1400 feet AGL, overcast cloud deck at 2900 feet AGL
Weather:-RA BR (light rain, mist)
QC Flag:automated observation with no human augmentation
Text:KHSE 190951Z AUTO 33012G24KT 10SM BKN022 OVC027 23/21 A2978 RMK AO2 SLP083 T02330206 TSNO
Temperature: 23.3°C ( 74°F)
Dewpoint: 20.6°C ( 69°F) [RH = 85%]
Pressure (altimeter):29.78 inches Hg (1008.5 mb) [Sea level pressure: 1008.3 mb]
Winds:from the NNW (330 degrees) at 14 MPH (12 knots; 6.2 m/s) gusting to 28 MPH (24 knots; 12.3 m/s)
Visibility:10 or more sm (16+ km)
Ceiling:2200 feet AGL
Clouds: broken clouds at 2200 feet AGL, overcast cloud deck at 2700 feet AGL
QC Flag:automated observation with no human augmentation
Text:KHSE 190859Z AUTO 33013G23KT 10SM SCT022 BKN027 OVC065 23/21 A2977 RMK AO2 T02330211 TSNO
Temperature: 23.3°C ( 74°F)
Dewpoint: 21.1°C ( 70°F) [RH = 87%]
Pressure (altimeter):29.77 inches Hg (1008.2 mb)
Winds:from the NNW (330 degrees) at 15 MPH (13 knots; 6.7 m/s) gusting to 26 MPH (23 knots; 11.8 m/s)
Visibility:10 or more sm (16+ km)
Ceiling:2700 feet AGL
Clouds: scattered clouds at 2200 feet AGL, broken clouds at 2700 feet AGL, overcast cloud deck at 6500 feet AGL
QC Flag:automated observation with no human augmentation
Text:KHSE 190851Z AUTO 33011G19KT 10SM SCT025 BKN043 OVC065 23/21 A2976 RMK AO2 RAB05E32 SLP078 P0000 60000 T02330211 56012 TSNO
Temperature: 23.3°C ( 74°F)
Dewpoint: 21.1°C ( 70°F) [RH = 87%]
Pressure (altimeter):29.76 inches Hg (1007.9 mb) [Sea level pressure: 1007.8 mb]
Winds:from the NNW (330 degrees) at 13 MPH (11 knots; 5.7 m/s) gusting to 22 MPH (19 knots; 9.8 m/s)
Visibility:10 or more sm (16+ km)
Ceiling:4300 feet AGL
Clouds: scattered clouds at 2500 feet AGL, broken clouds at 4300 feet AGL, overcast cloud deck at 6500 feet AGL
QC Flag:automated observation with no human augmentation
Text:KHSE 190824Z AUTO 36012G21KT 320V020 10SM -RA FEW019 BKN039 OVC050 24/20 A2976 RMK AO2 RAB05 P0000 T02390200 TSNO
Temperature: 23.9°C ( 75°F)
Dewpoint: 20.0°C ( 68°F) [RH = 79%]
Pressure (altimeter):29.76 inches Hg (1007.9 mb)
Winds:from the N (360 degrees) at 14 MPH (12 knots; 6.2 m/s) gusting to 24 MPH (21 knots; 10.8 m/s)
Visibility:10 or more sm (16+ km)
Ceiling:3900 feet AGL
Clouds: few clouds at 1900 feet AGL, broken clouds at 3900 feet AGL, overcast cloud deck at 5000 feet AGL
Weather:-RA (light rain)
QC Flag:automated observation with no human augmentation
Text:KHSE 190751Z AUTO 35009G25KT 320V030 10SM BKN020 OVC028 24/21 A2977 RMK AO2 SLP080 T02390206 TSNO
Temperature: 23.9°C ( 75°F)
Dewpoint: 20.6°C ( 69°F) [RH = 82%]
Pressure (altimeter):29.77 inches Hg (1008.2 mb) [Sea level pressure: 1008.0 mb]
Winds:from the N (350 degrees) at 10 MPH (9 knots; 4.6 m/s) gusting to 29 MPH (25 knots; 12.9 m/s)
Visibility:10 or more sm (16+ km)
Ceiling:2000 feet AGL
Clouds: broken clouds at 2000 feet AGL, overcast cloud deck at 2800 feet AGL
QC Flag:automated observation with no human augmentation
Text:KHSE 190651Z AUTO 35009G23KT 320V040 10SM BKN020 OVC029 24/21 A2978 RMK AO2 SLP084 T02390211 TSNO
Temperature: 23.9°C ( 75°F)
Dewpoint: 21.1°C ( 70°F) [RH = 84%]
Pressure (altimeter):29.78 inches Hg (1008.5 mb) [Sea level pressure: 1008.4 mb]
Winds:from the N (350 degrees) at 10 MPH (9 knots; 4.6 m/s) gusting to 26 MPH (23 knots; 11.8 m/s)
Visibility:10 or more sm (16+ km)
Ceiling:2000 feet AGL
Clouds: broken clouds at 2000 feet AGL, overcast cloud deck at 2900 feet AGL
QC Flag:automated observation with no human augmentation
Text:KHSE 190551Z AUTO 34009G25KT 300V020 10SM SCT019 BKN024 OVC030 24/21 A2980 RMK AO2 SLP090 T02390211 10244 20239 58012 TSNO
Temperature: 23.9°C ( 75°F)
Dewpoint: 21.1°C ( 70°F) [RH = 84%]
Pressure (altimeter):29.80 inches Hg (1009.2 mb) [Sea level pressure: 1009.0 mb]
Winds:from the NNW (340 degrees) at 10 MPH (9 knots; 4.6 m/s) gusting to 29 MPH (25 knots; 12.9 m/s)
Visibility:10 or more sm (16+ km)
Ceiling:2400 feet AGL
Clouds: scattered clouds at 1900 feet AGL, broken clouds at 2400 feet AGL, overcast cloud deck at 3000 feet AGL
QC Flag:automated observation with no human augmentation
Text:KHSE 190451Z AUTO 35009G21KT 10SM SCT021 BKN028 24/21 A2981 RMK AO2 SLP095 T02390211 402670239 TSNO
Temperature: 23.9°C ( 75°F)
Dewpoint: 21.1°C ( 70°F) [RH = 84%]
Pressure (altimeter):29.81 inches Hg (1009.6 mb) [Sea level pressure: 1009.5 mb]
Winds:from the N (350 degrees) at 10 MPH (9 knots; 4.6 m/s) gusting to 24 MPH (21 knots; 10.8 m/s)
Visibility:10 or more sm (16+ km)
Ceiling:2800 feet AGL
Clouds: scattered clouds at 2100 feet AGL, broken clouds at 2800 feet AGL
QC Flag:automated observation with no human augmentation
Text:KHSE 190408Z AUTO 34009G21KT 280V030 10SM BKN018 BKN024 24/22 A2983 RMK AO2 T02390217 TSNO
Temperature: 23.9°C ( 75°F)
Dewpoint: 21.7°C ( 71°F) [RH = 88%]
Pressure (altimeter):29.83 inches Hg (1010.2 mb)
Winds:from the NNW (340 degrees) at 10 MPH (9 knots; 4.6 m/s) gusting to 24 MPH (21 knots; 10.8 m/s)
Visibility:10 or more sm (16+ km)
Ceiling:1800 feet AGL
Clouds: broken clouds at 1800 feet AGL, broken clouds at 2400 feet AGL
QC Flag:automated observation with no human augmentation
Text:KHSE 190400Z AUTO 34011G20KT 320V030 10SM SCT018 SCT024 24/22 A2983 RMK AO2 T02390217 TSNO
Temperature: 23.9°C ( 75°F)
Dewpoint: 21.7°C ( 71°F) [RH = 88%]
Pressure (altimeter):29.83 inches Hg (1010.2 mb)
Winds:from the NNW (340 degrees) at 13 MPH (11 knots; 5.7 m/s) gusting to 23 MPH (20 knots; 10.3 m/s)
Visibility:10 or more sm (16+ km)
Ceiling:at least 12,000 feet AGL
Clouds: scattered clouds at 1800 feet AGL, scattered clouds at 2400 feet AGL
QC Flag:automated observation with no human augmentation
Text:KHSE 190351Z AUTO 35011G21KT 320V040 10SM SCT016 BKN022 24/22 A2983 RMK AO2 SLP102 T02390217 TSNO
Temperature: 23.9°C ( 75°F)
Dewpoint: 21.7°C ( 71°F) [RH = 88%]
Pressure (altimeter):29.83 inches Hg (1010.2 mb) [Sea level pressure: 1010.2 mb]
Winds:from the N (350 degrees) at 13 MPH (11 knots; 5.7 m/s) gusting to 24 MPH (21 knots; 10.8 m/s)
Visibility:10 or more sm (16+ km)
Ceiling:2200 feet AGL
Clouds: scattered clouds at 1600 feet AGL, broken clouds at 2200 feet AGL
QC Flag:automated observation with no human augmentation
Text:KHSE 190348Z AUTO 34009G21KT 300V010 10SM SCT016 SCT022 24/22 A2983 RMK AO2 TSNO
Temperature: 24.0°C ( 75°F)
Dewpoint: 22.0°C ( 72°F) [RH = 89%]
Pressure (altimeter):29.83 inches Hg (1010.2 mb)
Winds:from the NNW (340 degrees) at 10 MPH (9 knots; 4.6 m/s) gusting to 24 MPH (21 knots; 10.8 m/s)
Visibility:10 or more sm (16+ km)
Ceiling:at least 12,000 feet AGL
Clouds: scattered clouds at 1600 feet AGL, scattered clouds at 2200 feet AGL
QC Flag:automated observation with no human augmentation
Text:KHSE 190327Z AUTO 36010G22KT 330V040 10SM BKN017 BKN022 24/22 A2984 RMK AO2 T02390217 TSNO
Temperature: 23.9°C ( 75°F)
Dewpoint: 21.7°C ( 71°F) [RH = 88%]
Pressure (altimeter):29.84 inches Hg (1010.6 mb)
Winds:from the N (360 degrees) at 12 MPH (10 knots; 5.1 m/s) gusting to 25 MPH (22 knots; 11.3 m/s)
Visibility:10 or more sm (16+ km)
Ceiling:1700 feet AGL
Clouds: broken clouds at 1700 feet AGL, broken clouds at 2200 feet AGL
QC Flag:automated observation with no human augmentation
Text:KHSE 190302Z AUTO 36009G21KT 300V030 10SM FEW020 SCT026 SCT032 24/22 A2984 RMK AO2 T02390217 TSNO
Temperature: 23.9°C ( 75°F)
Dewpoint: 21.7°C ( 71°F) [RH = 88%]
Pressure (altimeter):29.84 inches Hg (1010.6 mb)
Winds:from the N (360 degrees) at 10 MPH (9 knots; 4.6 m/s) gusting to 24 MPH (21 knots; 10.8 m/s)
Visibility:10 or more sm (16+ km)
Ceiling:at least 12,000 feet AGL
Clouds: few clouds at 2000 feet AGL, scattered clouds at 2600 feet AGL, scattered clouds at 3200 feet AGL
QC Flag:automated observation with no human augmentation
Text:KHSE 190251Z AUTO 36009G25KT 290V160 10SM FEW014 BKN028 24/22 A2985 RMK AO2 SLP106 T02390217 55005 TSNO
Temperature: 23.9°C ( 75°F)
Dewpoint: 21.7°C ( 71°F) [RH = 88%]
Pressure (altimeter):29.85 inches Hg (1010.9 mb) [Sea level pressure: 1010.6 mb]
Winds:from the N (360 degrees) at 10 MPH (9 knots; 4.6 m/s) gusting to 29 MPH (25 knots; 12.9 m/s)
Visibility:10 or more sm (16+ km)
Ceiling:2800 feet AGL
Clouds: few clouds at 1400 feet AGL, broken clouds at 2800 feet AGL
QC Flag:automated observation with no human augmentation
Text:KHSE 190244Z AUTO 36010G25KT 310V030 10SM SCT014 SCT024 BKN028 24/22 A2985 RMK AO2 T02390217 TSNO
Temperature: 23.9°C ( 75°F)
Dewpoint: 21.7°C ( 71°F) [RH = 88%]
Pressure (altimeter):29.85 inches Hg (1010.9 mb)
Winds:from the N (360 degrees) at 12 MPH (10 knots; 5.1 m/s) gusting to 29 MPH (25 knots; 12.9 m/s)
Visibility:10 or more sm (16+ km)
Ceiling:2800 feet AGL
Clouds: scattered clouds at 1400 feet AGL, scattered clouds at 2400 feet AGL, broken clouds at 2800 feet AGL
QC Flag:automated observation with no human augmentation
Text:KHSE 190151Z AUTO 36009G21KT 320V030 10SM BKN014 BKN020 24/22 A2984 RMK AO2 SLP105 T02390222 TSNO
Temperature: 23.9°C ( 75°F)
Dewpoint: 22.2°C ( 72°F) [RH = 90%]
Pressure (altimeter):29.84 inches Hg (1010.6 mb) [Sea level pressure: 1010.5 mb]
Winds:from the N (360 degrees) at 10 MPH (9 knots; 4.6 m/s) gusting to 24 MPH (21 knots; 10.8 m/s)
Visibility:10 or more sm (16+ km)
Ceiling:1400 feet AGL
Clouds: broken clouds at 1400 feet AGL, broken clouds at 2000 feet AGL
QC Flag:automated observation with no human augmentation
Text:KHSE 190129Z AUTO 36009G23KT 330V070 10SM BKN014 OVC020 24/22 A2984 RMK AO2 T02440222 TSNO
Temperature: 24.4°C ( 76°F)
Dewpoint: 22.2°C ( 72°F) [RH = 88%]
Pressure (altimeter):29.84 inches Hg (1010.6 mb)
Winds:from the N (360 degrees) at 10 MPH (9 knots; 4.6 m/s) gusting to 26 MPH (23 knots; 11.8 m/s)
Visibility:10 or more sm (16+ km)
Ceiling:1400 feet AGL
Clouds: broken clouds at 1400 feet AGL, overcast cloud deck at 2000 feet AGL
QC Flag:automated observation with no human augmentation
Text:KHSE 190116Z AUTO 36007G23KT 280V080 10SM SCT011 BKN017 24/23 A2984 RMK AO2 T02440228 TSNO
Temperature: 24.4°C ( 76°F)
Dewpoint: 22.8°C ( 73°F) [RH = 91%]
Pressure (altimeter):29.84 inches Hg (1010.6 mb)
Winds:from the N (360 degrees) at 8 MPH (7 knots; 3.6 m/s) gusting to 26 MPH (23 knots; 11.8 m/s)
Visibility:10 or more sm (16+ km)
Ceiling:1700 feet AGL
Clouds: scattered clouds at 1100 feet AGL, broken clouds at 1700 feet AGL
QC Flag:automated observation with no human augmentation
Text:KHSE 190051Z AUTO 01009G18KT 330V040 10SM SCT013 24/22 A2985 RMK AO2 SLP107 T02390222 TSNO
Temperature: 23.9°C ( 75°F)
Dewpoint: 22.2°C ( 72°F) [RH = 90%]
Pressure (altimeter):29.85 inches Hg (1010.9 mb) [Sea level pressure: 1010.7 mb]
Winds:from the N (10 degrees) at 10 MPH (9 knots; 4.6 m/s) gusting to 21 MPH (18 knots; 9.3 m/s)
Visibility:10 or more sm (16+ km)
Ceiling:at least 12,000 feet AGL
Clouds: scattered clouds at 1300 feet AGL
QC Flag:automated observation with no human augmentation
Text:KHSE 190026Z AUTO 36009G24KT 320V040 10SM BKN013 24/22 A2986 RMK AO2 T02390222 TSNO
Temperature: 23.9°C ( 75°F)
Dewpoint: 22.2°C ( 72°F) [RH = 90%]
Pressure (altimeter):29.86 inches Hg (1011.3 mb)
Winds:from the N (360 degrees) at 10 MPH (9 knots; 4.6 m/s) gusting to 28 MPH (24 knots; 12.3 m/s)
Visibility:10 or more sm (16+ km)
Ceiling:1300 feet AGL
Clouds: broken clouds at 1300 feet AGL
QC Flag:automated observation with no human augmentation
Text:KHSE 190005Z AUTO 01010G20KT 330V040 10SM SCT013 SCT019 24/22 A2986 RMK AO2 T02390222 TSNO
Temperature: 23.9°C ( 75°F)
Dewpoint: 22.2°C ( 72°F) [RH = 90%]
Pressure (altimeter):29.86 inches Hg (1011.3 mb)
Winds:from the N (10 degrees) at 12 MPH (10 knots; 5.1 m/s) gusting to 23 MPH (20 knots; 10.3 m/s)
Visibility:10 or more sm (16+ km)
Ceiling:at least 12,000 feet AGL
Clouds: scattered clouds at 1300 feet AGL, scattered clouds at 1900 feet AGL
QC Flag:automated observation with no human augmentation
Text:KHSE 182351Z AUTO 01009G20KT 330V040 10SM BKN016 BKN023 24/22 A2986 RMK AO2 SLP111 T02440222 10267 20244 53001 TSNO
Temperature: 24.4°C ( 76°F)
Dewpoint: 22.2°C ( 72°F) [RH = 88%]
Pressure (altimeter):29.86 inches Hg (1011.3 mb) [Sea level pressure: 1011.1 mb]
Winds:from the N (10 degrees) at 10 MPH (9 knots; 4.6 m/s) gusting to 23 MPH (20 knots; 10.3 m/s)
Visibility:10 or more sm (16+ km)
Ceiling:1600 feet AGL
Clouds: broken clouds at 1600 feet AGL, broken clouds at 2300 feet AGL
QC Flag:automated observation with no human augmentation
Text:KHSE 182251Z AUTO 02010G23KT 330V060 10SM FEW010 OVC021 24/22 A2985 RMK AO2 SLP109 T02440222 TSNO
Temperature: 24.4°C ( 76°F)
Dewpoint: 22.2°C ( 72°F) [RH = 88%]
Pressure (altimeter):29.85 inches Hg (1010.9 mb) [Sea level pressure: 1010.9 mb]
Winds:from the NNE (20 degrees) at 12 MPH (10 knots; 5.1 m/s) gusting to 26 MPH (23 knots; 11.8 m/s)
Visibility:10 or more sm (16+ km)
Ceiling:2100 feet AGL
Clouds: few clouds at 1000 feet AGL, overcast cloud deck at 2100 feet AGL
QC Flag:automated observation with no human augmentation
Text:KHSE 182151Z AUTO 36008G19KT 10SM SCT013 BKN019 25/23 A2985 RMK AO2 SLP108 T02500228 TSNO
Temperature: 25.0°C ( 77°F)
Dewpoint: 22.8°C ( 73°F) [RH = 88%]
Pressure (altimeter):29.85 inches Hg (1010.9 mb) [Sea level pressure: 1010.8 mb]
Winds:from the N (360 degrees) at 9 MPH (8 knots; 4.1 m/s) gusting to 22 MPH (19 knots; 9.8 m/s)
Visibility:10 or more sm (16+ km)
Ceiling:1900 feet AGL
Clouds: scattered clouds at 1300 feet AGL, broken clouds at 1900 feet AGL
QC Flag:automated observation with no human augmentation
Text:KHSE 182058Z AUTO 36007G18KT 300V050 10SM SCT013 26/23 A2986 RMK AO2 T02560228 TSNO
Temperature: 25.6°C ( 78°F)
Dewpoint: 22.8°C ( 73°F) [RH = 85%]
Pressure (altimeter):29.86 inches Hg (1011.3 mb)
Winds:from the N (360 degrees) at 8 MPH (7 knots; 3.6 m/s) gusting to 21 MPH (18 knots; 9.3 m/s)
Visibility:10 or more sm (16+ km)
Ceiling:at least 12,000 feet AGL
Clouds: scattered clouds at 1300 feet AGL
QC Flag:automated observation with no human augmentation
Text:KHSE 182051Z AUTO 01008G19KT 330V060 10SM BKN013 BKN019 26/23 A2986 RMK AO2 SLP110 T02560228 56007 TSNO
Temperature: 25.6°C ( 78°F)
Dewpoint: 22.8°C ( 73°F) [RH = 85%]
Pressure (altimeter):29.86 inches Hg (1011.3 mb) [Sea level pressure: 1011.0 mb]
Winds:from the N (10 degrees) at 9 MPH (8 knots; 4.1 m/s) gusting to 22 MPH (19 knots; 9.8 m/s)
Visibility:10 or more sm (16+ km)
Ceiling:1300 feet AGL
Clouds: broken clouds at 1300 feet AGL, broken clouds at 1900 feet AGL
QC Flag:automated observation with no human augmentation
Text:KHSE 182041Z AUTO 36010G22KT 320V040 10SM SCT011 BKN019 25/22 A2986 RMK AO2 T02500222 TSNO
Temperature: 25.0°C ( 77°F)
Dewpoint: 22.2°C ( 72°F) [RH = 84%]
Pressure (altimeter):29.86 inches Hg (1011.3 mb)
Winds:from the N (360 degrees) at 12 MPH (10 knots; 5.1 m/s) gusting to 25 MPH (22 knots; 11.3 m/s)
Visibility:10 or more sm (16+ km)
Ceiling:1900 feet AGL
Clouds: scattered clouds at 1100 feet AGL, broken clouds at 1900 feet AGL
QC Flag:automated observation with no human augmentation
Text:KHSE 181951Z AUTO 01009G18KT 10SM BKN011 OVC018 26/23 A2986 RMK AO2 SLP112 T02560233 TSNO
Temperature: 25.6°C ( 78°F)
Dewpoint: 23.3°C ( 74°F) [RH = 87%]
Pressure (altimeter):29.86 inches Hg (1011.3 mb) [Sea level pressure: 1011.2 mb]
Winds:from the N (10 degrees) at 10 MPH (9 knots; 4.6 m/s) gusting to 21 MPH (18 knots; 9.3 m/s)
Visibility:10 or more sm (16+ km)
Ceiling:1100 feet AGL
Clouds: broken clouds at 1100 feet AGL, overcast cloud deck at 1800 feet AGL
QC Flag:automated observation with no human augmentation
Text:KHSE 181912Z AUTO 01010G22KT 330V030 10SM BKN013 BKN021 OVC026 26/23 A2987 RMK AO2 T02560233 TSNO
Temperature: 25.6°C ( 78°F)
Dewpoint: 23.3°C ( 74°F) [RH = 87%]
Pressure (altimeter):29.87 inches Hg (1011.6 mb)
Winds:from the N (10 degrees) at 12 MPH (10 knots; 5.1 m/s) gusting to 25 MPH (22 knots; 11.3 m/s)
Visibility:10 or more sm (16+ km)
Ceiling:1300 feet AGL
Clouds: broken clouds at 1300 feet AGL, broken clouds at 2100 feet AGL, overcast cloud deck at 2600 feet AGL
QC Flag:automated observation with no human augmentation
Text:KHSE 181851Z AUTO 01012G22KT 10SM SCT012 OVC025 26/23 A2987 RMK AO2 SLP113 T02560228 TSNO
Temperature: 25.6°C ( 78°F)
Dewpoint: 22.8°C ( 73°F) [RH = 85%]
Pressure (altimeter):29.87 inches Hg (1011.6 mb) [Sea level pressure: 1011.3 mb]
Winds:from the N (10 degrees) at 14 MPH (12 knots; 6.2 m/s) gusting to 25 MPH (22 knots; 11.3 m/s)
Visibility:10 or more sm (16+ km)
Ceiling:2500 feet AGL
Clouds: scattered clouds at 1200 feet AGL, overcast cloud deck at 2500 feet AGL
QC Flag:automated observation with no human augmentation
Text:KHSE 181751Z AUTO 01014G23KT 10SM OVC011 26/23 A2988 RMK AO2 SLP117 T02610228 10267 20239 58014 TSNO
Temperature: 26.1°C ( 79°F)
Dewpoint: 22.8°C ( 73°F) [RH = 82%]
Pressure (altimeter):29.88 inches Hg (1011.9 mb) [Sea level pressure: 1011.7 mb]
Winds:from the N (10 degrees) at 16 MPH (14 knots; 7.2 m/s) gusting to 26 MPH (23 knots; 11.8 m/s)
Visibility:10 or more sm (16+ km)
Ceiling:1100 feet AGL
Clouds: overcast cloud deck at 1100 feet AGL
QC Flag:automated observation with no human augmentation
Text:KHSE 181734Z AUTO 01009G20KT 340V040 10SM BKN011 BKN017 OVC025 27/23 A2988 RMK AO2 T02670228 TSNO
Temperature: 26.7°C ( 80°F)
Dewpoint: 22.8°C ( 73°F) [RH = 79%]
Pressure (altimeter):29.88 inches Hg (1011.9 mb)
Winds:from the N (10 degrees) at 10 MPH (9 knots; 4.6 m/s) gusting to 23 MPH (20 knots; 10.3 m/s)
Visibility:10 or more sm (16+ km)
Ceiling:1100 feet AGL
Clouds: broken clouds at 1100 feet AGL, broken clouds at 1700 feet AGL, overcast cloud deck at 2500 feet AGL
QC Flag:automated observation with no human augmentation
Text:KHSE 181718Z AUTO 02011G22KT 10SM SCT012 BKN018 OVC023 26/23 A2989 RMK AO2 T02610228 TSNO
Temperature: 26.1°C ( 79°F)
Dewpoint: 22.8°C ( 73°F) [RH = 82%]
Pressure (altimeter):29.89 inches Hg (1012.3 mb)
Winds:from the NNE (20 degrees) at 13 MPH (11 knots; 5.7 m/s) gusting to 25 MPH (22 knots; 11.3 m/s)
Visibility:10 or more sm (16+ km)
Ceiling:1800 feet AGL
Clouds: scattered clouds at 1200 feet AGL, broken clouds at 1800 feet AGL, overcast cloud deck at 2300 feet AGL
QC Flag:automated observation with no human augmentation
Text:KHSE 181651Z AUTO 01010G19KT 340V040 10SM BKN012 OVC019 26/23 A2991 RMK AO2 SLP128 T02560228 TSNO
Temperature: 25.6°C ( 78°F)
Dewpoint: 22.8°C ( 73°F) [RH = 85%]
Pressure (altimeter):29.91 inches Hg (1013.0 mb) [Sea level pressure: 1012.8 mb]
Winds:from the N (10 degrees) at 12 MPH (10 knots; 5.1 m/s) gusting to 22 MPH (19 knots; 9.8 m/s)
Visibility:10 or more sm (16+ km)
Ceiling:1200 feet AGL
Clouds: broken clouds at 1200 feet AGL, overcast cloud deck at 1900 feet AGL
QC Flag:automated observation with no human augmentation
Text:KHSE 181551Z AUTO 01010G21KT 10SM BKN012 OVC018 25/23 A2992 RMK AO2 PK WND 01026/1514 SLP130 T02500228 TSNO
Temperature: 25.0°C ( 77°F)
Dewpoint: 22.8°C ( 73°F) [RH = 88%]
Pressure (altimeter):29.92 inches Hg (1013.3 mb) [Sea level pressure: 1013.0 mb]
Winds:from the N (10 degrees) at 12 MPH (10 knots; 5.1 m/s) gusting to 24 MPH (21 knots; 10.8 m/s)
Visibility:10 or more sm (16+ km)
Ceiling:1200 feet AGL
Clouds: broken clouds at 1200 feet AGL, overcast cloud deck at 1800 feet AGL
QC Flag:automated observation with no human augmentation
Text:KHSE 181451Z AUTO 01011G22KT 10SM BKN013 OVC019 25/23 A2992 RMK AO2 SLP131 T02500228 50003 TSNO
Temperature: 25.0°C ( 77°F)
Dewpoint: 22.8°C ( 73°F) [RH = 88%]
Pressure (altimeter):29.92 inches Hg (1013.3 mb) [Sea level pressure: 1013.1 mb]
Winds:from the N (10 degrees) at 13 MPH (11 knots; 5.7 m/s) gusting to 25 MPH (22 knots; 11.3 m/s)
Visibility:10 or more sm (16+ km)
Ceiling:1300 feet AGL
Clouds: broken clouds at 1300 feet AGL, overcast cloud deck at 1900 feet AGL
QC Flag:automated observation with no human augmentation
Text:KHSE 181351Z AUTO 03010G23KT 360V100 10SM OVC011 25/23 A2992 RMK AO2 SLP132 T02500228 TSNO
Temperature: 25.0°C ( 77°F)
Dewpoint: 22.8°C ( 73°F) [RH = 88%]
Pressure (altimeter):29.92 inches Hg (1013.3 mb) [Sea level pressure: 1013.2 mb]
Winds:from the NNE (30 degrees) at 12 MPH (10 knots; 5.1 m/s) gusting to 26 MPH (23 knots; 11.8 m/s)
Visibility:10 or more sm (16+ km)
Ceiling:1100 feet AGL
Clouds: overcast cloud deck at 1100 feet AGL
QC Flag:automated observation with no human augmentation
Text:KHSE 181251Z AUTO 02013G22KT 10SM OVC012 24/23 A2991 RMK AO2 SLP128 T02440228 TSNO
Temperature: 24.4°C ( 76°F)
Dewpoint: 22.8°C ( 73°F) [RH = 91%]
Pressure (altimeter):29.91 inches Hg (1013.0 mb) [Sea level pressure: 1012.8 mb]
Winds:from the NNE (20 degrees) at 15 MPH (13 knots; 6.7 m/s) gusting to 25 MPH (22 knots; 11.3 m/s)
Visibility:10 or more sm (16+ km)
Ceiling:1200 feet AGL
Clouds: overcast cloud deck at 1200 feet AGL
QC Flag:automated observation with no human augmentation
Text:KHSE 181237Z AUTO 02011G22KT 350V050 10SM OVC011 24/23 A2991 RMK AO2 T02440228 TSNO
Temperature: 24.4°C ( 76°F)
Dewpoint: 22.8°C ( 73°F) [RH = 91%]
Pressure (altimeter):29.91 inches Hg (1013.0 mb)
Winds:from the NNE (20 degrees) at 13 MPH (11 knots; 5.7 m/s) gusting to 25 MPH (22 knots; 11.3 m/s)
Visibility:10 or more sm (16+ km)
Ceiling:1100 feet AGL
Clouds: overcast cloud deck at 1100 feet AGL
QC Flag:automated observation with no human augmentation
Text:KHSE 181151Z AUTO 02011G20KT 10SM OVC008 24/23 A2991 RMK AO2 CIG 007V011 SLP128 T02390228 10244 20239 53003 TSNO
Temperature: 23.9°C ( 75°F)
Dewpoint: 22.8°C ( 73°F) [RH = 94%]
Pressure (altimeter):29.91 inches Hg (1013.0 mb) [Sea level pressure: 1012.8 mb]
Winds:from the NNE (20 degrees) at 13 MPH (11 knots; 5.7 m/s) gusting to 23 MPH (20 knots; 10.3 m/s)
Visibility:10 or more sm (16+ km)
Ceiling:800 feet AGL
Clouds: overcast cloud deck at 800 feet AGL
QC Flag:automated observation with no human augmentation
Text:KHSE 181051Z AUTO 01010G19KT 10SM OVC007 24/23 A2990 RMK AO2 SLP126 T02390233 TSNO
Temperature: 23.9°C ( 75°F)
Dewpoint: 23.3°C ( 74°F) [RH = 96%]
Pressure (altimeter):29.90 inches Hg (1012.6 mb) [Sea level pressure: 1012.6 mb]
Winds:from the N (10 degrees) at 12 MPH (10 knots; 5.1 m/s) gusting to 22 MPH (19 knots; 9.8 m/s)
Visibility:10 or more sm (16+ km)
Ceiling:700 feet AGL
Clouds: overcast cloud deck at 700 feet AGL
QC Flag:automated observation with no human augmentation
Text:KHSE 181003Z AUTO 01012G20KT 10SM BKN009 OVC013 24/23 A2990 RMK AO2 CIG 007V012 T02390228 TSNO
Temperature: 23.9°C ( 75°F)
Dewpoint: 22.8°C ( 73°F) [RH = 94%]
Pressure (altimeter):29.90 inches Hg (1012.6 mb)
Winds:from the N (10 degrees) at 14 MPH (12 knots; 6.2 m/s) gusting to 23 MPH (20 knots; 10.3 m/s)
Visibility:10 or more sm (16+ km)
Ceiling:900 feet AGL
Clouds: broken clouds at 900 feet AGL, overcast cloud deck at 1300 feet AGL
QC Flag:automated observation with no human augmentation
Text:KHSE 180951Z AUTO 03011G17KT 10SM BKN011 24/23 A2990 RMK AO2 SLP124 T02390228 TSNO
Temperature: 23.9°C ( 75°F)
Dewpoint: 22.8°C ( 73°F) [RH = 94%]
Pressure (altimeter):29.90 inches Hg (1012.6 mb) [Sea level pressure: 1012.4 mb]
Winds:from the NNE (30 degrees) at 13 MPH (11 knots; 5.7 m/s) gusting to 20 MPH (17 knots; 8.7 m/s)
Visibility:10 or more sm (16+ km)
Ceiling:1100 feet AGL
Clouds: broken clouds at 1100 feet AGL
QC Flag:automated observation with no human augmentation
Text:KHSE 180851Z AUTO 02010G18KT 10SM BKN009 BKN012 OVC038 24/23 A2990 RMK AO2 SLP125 T02390233 56012 TSNO
Temperature: 23.9°C ( 75°F)
Dewpoint: 23.3°C ( 74°F) [RH = 96%]
Pressure (altimeter):29.90 inches Hg (1012.6 mb) [Sea level pressure: 1012.5 mb]
Winds:from the NNE (20 degrees) at 12 MPH (10 knots; 5.1 m/s) gusting to 21 MPH (18 knots; 9.3 m/s)
Visibility:10 or more sm (16+ km)
Ceiling:900 feet AGL
Clouds: broken clouds at 900 feet AGL, broken clouds at 1200 feet AGL, overcast cloud deck at 3800 feet AGL
QC Flag:automated observation with no human augmentation
Text:KHSE 180751Z AUTO 01010G18KT 10SM OVC007 24/23 A2990 RMK AO2 SLP126 T02440233 TSNO
Temperature: 24.4°C ( 76°F)
Dewpoint: 23.3°C ( 74°F) [RH = 94%]
Pressure (altimeter):29.90 inches Hg (1012.6 mb) [Sea level pressure: 1012.6 mb]
Winds:from the N (10 degrees) at 12 MPH (10 knots; 5.1 m/s) gusting to 21 MPH (18 knots; 9.3 m/s)
Visibility:10 or more sm (16+ km)
Ceiling:700 feet AGL
Clouds: overcast cloud deck at 700 feet AGL
QC Flag:automated observation with no human augmentation